createdAt,value
2018-04-18T00:07:29.776Z,8.45
2018-04-18T00:12:33.030Z,7.57
2018-04-18T00:17:36.930Z,7.90
2018-04-18T00:22:40.171Z,6.80
2018-04-18T00:27:43.498Z,7.83
2018-04-18T00:32:50.291Z,7.47
2018-04-18T00:37:54.784Z,8.40
2018-04-18T00:42:58.101Z,8.33
2018-04-18T00:48:02.291Z,7.80
2018-04-18T00:53:06.879Z,7.97
2018-04-18T00:58:10.264Z,9.67
2018-04-18T01:03:13.897Z,8.90
2018-04-18T01:08:17.251Z,7.80
2018-04-18T01:13:20.585Z,9.07
2018-04-18T01:18:23.819Z,9.90
2018-04-18T01:23:28.811Z,8.47
2018-04-18T01:28:32.067Z,9.40
2018-04-18T01:33:35.868Z,8.33
2018-04-18T01:44:14.025Z,8.23
2018-04-18T01:49:22.469Z,8.13
2018-04-18T01:54:26.069Z,8.47
2018-04-18T01:59:29.788Z,7.20
2018-04-18T02:04:33.460Z,7.33
2018-04-18T02:09:39.518Z,10.57
2018-04-18T02:14:42.893Z,9.53
2018-04-18T02:19:48.385Z,9.13
2018-04-18T02:24:51.750Z,10.33
2018-04-18T02:29:55.357Z,9.37
2018-04-18T02:34:58.679Z,8.57
2018-04-18T02:40:02.290Z,12.73
2018-04-18T02:45:05.945Z,10.37
2018-04-18T02:50:09.188Z,13.27
2018-04-18T02:55:13.012Z,11.57
2018-04-18T03:00:16.335Z,11.07
2018-04-18T03:05:20.858Z,10.63
2018-04-18T03:10:24.503Z,13.50
2018-04-18T03:15:28.127Z,14.67
2018-04-18T03:20:31.597Z,12.20
2018-04-18T03:25:34.844Z,13.87
2018-04-18T03:30:38.057Z,8.83
2018-04-18T03:35:41.288Z,8.37
2018-04-18T03:40:45.265Z,9.47
2018-04-18T03:45:48.553Z,10.30
2018-04-18T03:50:51.763Z,10.03
2018-04-18T03:55:54.988Z,8.07
2018-04-18T04:00:58.599Z,9.40
2018-04-18T04:06:02.232Z,8.93
2018-04-18T04:11:05.507Z,11.03
2018-04-18T04:16:21.186Z,6.70
2018-04-18T04:21:36.310Z,7.83
2018-04-18T04:26:39.539Z,11.60
2018-04-18T04:31:45.743Z,8.23
2018-04-18T04:36:48.943Z,8.97
2018-04-18T04:41:52.244Z,8.57
2018-04-18T04:46:55.460Z,12.97
2018-04-18T04:51:58.682Z,9.07
2018-04-18T04:57:02.011Z,9.67
2018-04-18T05:02:05.304Z,11.00
2018-04-18T05:07:08.968Z,8.97
2018-04-18T05:12:21.452Z,9.80
2018-04-18T05:17:25.066Z,8.60
2018-04-18T05:22:28.669Z,9.27
2018-04-18T05:27:31.875Z,13.70
2018-04-18T05:32:35.096Z,8.90
2018-04-18T05:37:38.765Z,11.40
2018-04-18T05:42:42.329Z,11.80
2018-04-18T05:47:45.938Z,11.53
2018-04-18T05:52:49.666Z,10.87
2018-04-18T05:57:52.918Z,10.13
2018-04-18T06:02:56.143Z,10.10
2018-04-18T06:07:59.372Z,7.90
2018-04-18T06:13:03.024Z,7.60
2018-04-18T06:18:08.273Z,12.20
2018-04-18T06:23:11.501Z,25.87
2018-04-18T06:28:14.725Z,13.17
2018-04-18T06:33:18.048Z,11.97
2018-04-18T06:38:21.331Z,9.63
2018-04-18T06:43:24.572Z,11.77
2018-04-18T06:48:28.186Z,10.75
2018-04-18T06:53:32.605Z,9.65
2018-04-18T06:58:35.838Z,11.45
2018-04-18T07:03:39.564Z,11.52
2018-04-18T07:08:42.792Z,15.00
2018-04-18T07:13:46.149Z,13.02
2018-04-18T07:18:49.866Z,8.15
2018-04-18T07:23:53.088Z,8.15
2018-04-18T07:28:56.721Z,4.75
2018-04-18T07:33:59.939Z,6.82
2018-04-18T07:39:03.204Z,9.60
2018-04-18T07:44:06.507Z,10.35
2018-04-18T07:49:09.824Z,7.82
2018-04-18T07:54:13.455Z,7.82
2018-04-18T07:59:16.678Z,8.52
2018-04-18T08:04:19.894Z,6.60
2018-04-18T08:09:23.124Z,8.43
2018-04-18T08:14:26.471Z,9.32
2018-04-18T08:19:30.079Z,8.35
2018-04-18T08:24:33.739Z,9.55
2018-04-18T08:29:36.964Z,8.05
2018-04-18T08:34:40.183Z,6.40
2018-04-18T08:39:43.522Z,9.55
2018-04-18T08:44:46.770Z,10.77
2018-04-18T08:49:49.994Z,7.57
2018-04-18T08:54:53.216Z,9.18
2018-04-18T08:59:56.472Z,6.45
2018-04-18T09:04:59.709Z,7.00
2018-04-18T09:10:02.940Z,6.10
2018-04-18T09:15:06.166Z,7.28
2018-04-18T09:20:09.790Z,6.40
2018-04-18T09:25:12.999Z,5.03
2018-04-18T09:30:16.441Z,4.62
2018-04-18T09:35:19.666Z,7.30
2018-04-18T09:40:22.898Z,4.68
2018-04-18T09:45:26.510Z,4.05
2018-04-18T09:50:30.144Z,4.53
2018-04-18T09:55:33.357Z,3.95
2018-04-18T10:00:42.507Z,3.53
2018-04-18T10:05:45.736Z,4.45
2018-04-18T10:10:48.968Z,3.37
2018-04-18T10:15:52.190Z,5.10
2018-04-18T10:20:56.107Z,2.47
2018-04-18T10:25:59.342Z,4.62
2018-04-18T10:31:02.584Z,2.53
2018-04-18T10:36:05.833Z,2.10
2018-04-18T10:41:09.541Z,2.85
2018-04-18T10:46:12.767Z,2.62
2018-04-18T10:51:16.373Z,1.62
2018-04-18T10:56:20.673Z,1.85
2018-04-18T11:01:23.906Z,2.50
2018-04-18T11:06:27.548Z,2.30
2018-04-18T11:11:30.756Z,2.75
2018-04-18T11:16:33.979Z,2.70
2018-04-18T11:21:37.197Z,1.52
2018-04-18T11:26:40.406Z,1.77
2018-04-18T11:31:43.950Z,2.20
2018-04-18T11:36:47.184Z,1.30
2018-04-18T11:41:50.406Z,2.25
2018-04-18T11:46:53.631Z,1.23
2018-04-18T11:51:56.899Z,0.80
2018-04-18T11:57:00.492Z,2.12
2018-04-18T12:02:04.218Z,2.72
2018-04-18T12:07:07.512Z,0.90
2018-04-18T12:12:10.726Z,1.70
2018-04-18T12:17:14.447Z,1.85
2018-04-18T12:22:18.080Z,1.40
2018-04-18T12:27:21.291Z,1.17
2018-04-18T12:32:24.515Z,1.60
2018-04-18T12:37:27.727Z,3.78
2018-04-18T12:42:30.947Z,1.10
2018-04-18T12:47:34.253Z,0.90
2018-04-18T12:52:37.479Z,2.95
2018-04-18T12:57:40.794Z,3.85
2018-04-18T13:02:43.946Z,1.08
2018-04-18T13:07:47.312Z,5.32
2018-04-18T13:12:50.929Z,1.20
2018-04-18T13:17:55.328Z,2.30
2018-04-18T13:22:58.598Z,6.10
2018-04-18T13:28:01.807Z,3.75
2018-04-18T13:33:05.015Z,3.35
2018-04-18T13:38:08.356Z,4.68
2018-04-18T13:43:11.566Z,1.77
2018-04-18T13:48:14.793Z,2.28
2018-04-18T13:53:18.410Z,1.48
2018-04-18T13:58:22.036Z,1.48
2018-04-18T14:03:25.958Z,1.40
2018-04-18T14:08:29.862Z,1.85
2018-04-18T14:13:33.487Z,3.03
2018-04-18T14:18:37.204Z,4.28
2018-04-18T14:23:41.119Z,1.62
2018-04-18T14:28:44.750Z,2.15
2018-04-18T14:33:48.361Z,2.28
2018-04-18T14:38:51.966Z,3.95
2018-04-18T14:43:55.751Z,1.45
2018-04-18T14:48:58.978Z,2.37
2018-04-18T14:54:02.195Z,1.98
2018-04-18T14:59:05.816Z,1.45
2018-04-18T15:04:10.247Z,2.35
2018-04-18T15:09:13.878Z,2.45
2018-04-18T15:14:17.128Z,1.90
2018-04-18T15:19:20.468Z,1.50
2018-04-18T15:24:23.697Z,2.03
2018-04-18T15:29:26.990Z,1.23
2018-04-18T15:34:30.252Z,3.42
2018-04-18T15:39:33.598Z,1.23
2018-04-18T15:44:36.910Z,2.42
2018-04-18T15:49:40.213Z,2.65
2018-04-18T15:54:44.340Z,1.42
2018-04-18T15:59:47.618Z,5.93
2018-04-18T16:04:50.954Z,2.53
2018-04-18T16:09:54.172Z,2.87
2018-04-18T16:14:57.978Z,3.00
2018-04-18T16:20:01.193Z,2.05
2018-04-18T16:25:04.858Z,2.50
2018-04-18T16:30:20.008Z,2.35
2018-04-18T16:35:23.397Z,3.00
2018-04-18T16:40:26.630Z,2.80
2018-04-18T16:45:29.909Z,1.58
2018-04-18T16:50:33.646Z,1.50
2018-04-18T16:55:36.879Z,3.10
2018-04-18T17:00:40.116Z,2.17
2018-04-18T17:05:43.340Z,1.62
2018-04-18T17:10:46.665Z,2.00
2018-04-18T17:15:50.314Z,3.28
2018-04-18T17:20:53.547Z,3.40
2018-04-18T17:25:56.791Z,2.62
2018-04-18T17:31:00.518Z,2.22
2018-04-18T17:36:03.796Z,2.40
2018-04-18T17:41:07.406Z,2.12
2018-04-18T17:46:10.722Z,2.85
2018-04-18T17:51:14.336Z,4.80
2018-04-18T17:56:18.162Z,2.72
2018-04-18T18:01:22.080Z,4.50
2018-04-18T18:06:25.997Z,3.17
2018-04-18T18:11:29.402Z,4.18
2018-04-18T18:16:43.677Z,6.95
2018-04-18T18:21:47.934Z,7.65
2018-04-18T18:26:51.223Z,6.32
2018-04-18T18:31:55.215Z,4.87
2018-04-18T18:36:58.541Z,7.35
2018-04-18T18:42:02.557Z,7.65
2018-04-18T18:47:05.993Z,5.82
2018-04-18T18:52:09.686Z,7.15
2018-04-18T18:57:13.101Z,6.72
2018-04-18T19:02:19.568Z,8.98
2018-04-18T19:07:24.252Z,6.50
2018-04-18T19:12:28.128Z,6.82
2018-04-18T19:17:31.565Z,9.10
2018-04-18T19:22:35.306Z,7.55
2018-04-18T19:27:42.064Z,9.52
2018-04-18T19:32:45.460Z,8.20
2018-04-18T19:37:48.858Z,9.38
2018-04-18T19:42:52.894Z,9.32
2018-04-18T19:47:59.018Z,6.68
2018-04-18T19:53:02.684Z,8.52
2018-04-18T19:58:05.990Z,6.57
2018-04-18T20:03:12.869Z,7.32
2018-04-18T20:08:16.292Z,5.85
2018-04-18T20:13:19.817Z,7.28
2018-04-18T20:18:23.715Z,5.87
2018-04-18T20:23:27.092Z,6.87
2018-04-18T20:28:30.606Z,9.25
2018-04-18T20:33:34.235Z,7.80
2018-04-18T20:38:37.652Z,7.07
2018-04-18T20:43:40.887Z,5.87
2018-04-18T20:48:44.601Z,6.57
2018-04-18T20:53:47.876Z,8.77
2018-04-18T20:58:51.523Z,6.43
2018-04-18T21:03:55.452Z,8.55
2018-04-18T21:08:59.358Z,5.87
2018-04-18T21:14:02.809Z,6.55
2018-04-18T21:19:06.260Z,5.80
2018-04-18T21:24:09.490Z,10.55
2018-04-18T21:29:13.102Z,8.40
2018-04-18T21:34:16.336Z,8.10
2018-04-18T21:39:19.862Z,8.05
2018-04-18T21:44:23.227Z,6.30
2018-04-18T21:49:26.444Z,9.90
2018-04-18T21:54:30.072Z,7.72
2018-04-18T21:59:34.738Z,7.50
2018-04-18T22:04:38.854Z,5.97
2018-04-18T22:09:42.226Z,7.00
2018-04-18T22:14:45.861Z,9.20
2018-04-18T22:19:49.075Z,7.03
2018-04-18T22:24:52.437Z,7.93
2018-04-18T22:29:55.647Z,5.55
2018-04-18T22:34:58.927Z,6.87
2018-04-18T22:40:02.375Z,6.22
2018-04-18T22:45:06.118Z,7.60
2018-04-18T22:50:09.352Z,6.28
2018-04-18T22:55:12.635Z,10.75
2018-04-18T23:00:22.649Z,7.15
2018-04-18T23:05:26.180Z,7.93
2018-04-18T23:10:30.020Z,6.35
2018-04-18T23:15:34.040Z,7.75
2018-04-18T23:20:37.706Z,6.72
2018-04-18T23:25:41.053Z,8.90
2018-04-18T23:30:44.816Z,6.03
2018-04-18T23:35:48.099Z,5.82
2018-04-18T23:40:51.996Z,7.20
2018-04-18T23:45:55.747Z,5.20
2018-04-18T23:50:58.959Z,8.45
2018-04-18T23:56:02.254Z,6.28
